Time;durP1;ratioP1;P1;durP2;ratioP2;P2;SDS_P1;SDS_P2;PMS_P1;PMS_P2;Temp;Humidity;BMP_temperature;BMP_pressure;BME280_temperature;BME280_humidity;BME280_pressure;Samples;Min_cycle;Max_cycle;Signal;HPM_P1;HPM_P2
2023/09/14 00:00:29;;;;;;;;;;;21.40;65.10;;;;;;5108951;28;20064;-73
2023/09/14 00:02:55;;;;;;;;;;;21.40;65.20;;;;;;5108428;28;20370;-73
2023/09/14 00:05:20;;;;;;;;;;;21.40;65.10;;;;;;5108758;28;20017;-73
2023/09/14 00:07:46;;;;;;;;;;;21.40;65.20;;;;;;5108453;28;20290;-73
2023/09/14 00:10:11;;;;;;;;;;;21.40;65.20;;;;;;5108682;28;19920;-73
2023/09/14 00:12:37;;;;;;;;;;;21.40;65.10;;;;;;5108139;28;19928;-73
2023/09/14 00:15:02;;;;;;;;;;;21.30;65.00;;;;;;5108141;28;19924;-73
2023/09/14 00:17:28;;;;;;;;;;;21.40;65.10;;;;;;5108153;28;19920;-73
2023/09/14 00:19:53;;;;;;;;;;;21.30;65.00;;;;;;5108448;28;19965;-73
2023/09/14 00:22:19;;;;;;;;;;;21.30;65.00;;;;;;5109274;28;20282;-73
2023/09/14 00:24:44;;;;;;;;;;;21.30;65.00;;;;;;5108340;28;19920;-73
2023/09/14 00:27:10;;;;;;;;;;;21.30;65.00;;;;;;5107855;28;20302;-73
2023/09/14 00:29:35;;;;;;;;;;;21.30;65.00;;;;;;5107921;28;19920;-73
2023/09/14 00:32:01;;;;;;;;;;;21.30;65.00;;;;;;5107823;28;19924;-73
2023/09/14 00:34:27;;;;;;;;;;;21.30;64.90;;;;;;5108024;28;19931;-73
2023/09/14 00:36:52;;;;;;;;;;;21.30;65.00;;;;;;5142177;27;20391;-73
2023/09/14 00:39:17;;;;;;;;;;;21.30;65.00;;;;;;5108958;28;19920;-73
2023/09/14 00:41:43;;;;;;;;;;;21.20;64.90;;;;;;5107709;28;19931;-73
2023/09/14 00:44:08;;;;;;;;;;;21.30;65.00;;;;;;5132634;27;19920;-73
2023/09/14 00:46:34;;;;;;;;;;;21.30;65.00;;;;;;5093785;28;19920;-73
2023/09/14 00:49:00;;;;;;;;;;;21.20;64.90;;;;;;5094271;28;19927;-73
2023/09/14 00:51:27;;;;;;;;;;;21.20;64.90;;;;;;5093838;28;19960;-73
2023/09/14 00:53:54;;;;;;;;;;;21.20;64.90;;;;;;5094156;28;19919;-73
2023/09/14 00:56:19;;;;;;;;;;;21.20;64.90;;;;;;5094152;28;19978;-73
2023/09/14 00:58:47;;;;;;;;;;;21.20;64.90;;;;;;5093789;28;19959;-73
2023/09/14 01:01:14;;;;;;;;;;;21.20;65.60;;;;;;5093711;28;19920;-73
2023/09/14 01:03:40;;;;;;;;;;;21.20;64.90;;;;;;5093559;28;19973;-73
2023/09/14 01:06:05;;;;;;;;;;;21.20;65.00;;;;;;5095023;28;19923;-73
2023/09/14 01:08:31;;;;;;;;;;;21.20;64.90;;;;;;5093533;28;19930;-73
2023/09/14 01:10:56;;;;;;;;;;;21.20;64.90;;;;;;5127697;27;20014;-73
2023/09/14 01:13:29;;;;;;;;;;;21.20;64.90;;;;;;5127534;27;20361;-73
2023/09/14 01:15:59;;;;;;;;;;;21.10;64.80;;;;;;5092600;28;19950;-73
2023/09/14 01:18:30;;;;;;;;;;;21.20;64.80;;;;;;5094744;28;19935;-73
2023/09/14 01:23:48;;;;;;;;;;;21.10;64.70;;;;;;5110380;27;19918;-72
2023/09/14 01:26:15;;;;;;;;;;;21.10;64.70;;;;;;5108911;28;19951;-73
2023/09/14 01:28:40;;;;;;;;;;;21.10;64.70;;;;;;5108898;28;19931;-73
2023/09/14 01:31:06;;;;;;;;;;;21.10;64.70;;;;;;5109175;28;19920;-73
2023/09/14 01:33:32;;;;;;;;;;;21.10;64.70;;;;;;5108899;28;19927;-73
2023/09/14 01:38:42;;;;;;;;;;;21.10;64.70;;;;;;5110260;27;19912;-73
2023/09/14 01:41:09;;;;;;;;;;;21.10;64.60;;;;;;5108828;28;19927;-73
2023/09/14 01:43:34;;;;;;;;;;;21.00;64.60;;;;;;5109198;28;19920;-73
2023/09/14 01:46:01;;;;;;;;;;;21.10;64.60;;;;;;5108759;28;19924;-73
2023/09/14 01:48:27;;;;;;;;;;;21.00;64.50;;;;;;5108824;28;19977;-73
2023/09/14 01:50:52;;;;;;;;;;;21.00;64.50;;;;;;5108983;28;19943;-73
2023/09/14 01:53:21;;;;;;;;;;;21.00;64.60;;;;;;5108801;28;20337;-73
2023/09/14 01:55:46;;;;;;;;;;;21.00;64.50;;;;;;5108836;28;20282;-73
2023/09/14 01:58:12;;;;;;;;;;;21.00;64.50;;;;;;5108599;28;19924;-73
2023/09/14 02:00:38;;;;;;;;;;;21.00;64.50;;;;;;5108819;28;19927;-73
2023/09/14 02:03:03;;;;;;;;;;;21.00;64.50;;;;;;5143071;27;19924;-73
2023/09/14 02:05:29;;;;;;;;;;;21.00;64.50;;;;;;5109752;28;19967;-73
2023/09/14 02:07:55;;;;;;;;;;;20.90;64.40;;;;;;5108358;28;19924;-73
2023/09/14 02:10:22;;;;;;;;;;;21.00;64.50;;;;;;5108273;28;19924;-73
2023/09/14 02:12:48;;;;;;;;;;;20.90;64.40;;;;;;5108327;28;19920;-73
2023/09/14 02:15:14;;;;;;;;;;;21.00;64.50;;;;;;5108567;28;19969;-73
2023/09/14 02:17:39;;;;;;;;;;;20.90;64.40;;;;;;5108217;28;19920;-73
2023/09/14 02:20:06;;;;;;;;;;;20.90;64.40;;;;;;5108183;28;19989;-73
2023/09/14 02:22:31;;;;;;;;;;;20.90;64.40;;;;;;5108455;28;19920;-73
2023/09/14 02:24:57;;;;;;;;;;;20.90;64.40;;;;;;5108008;28;20390;-73
2023/09/14 02:27:22;;;;;;;;;;;20.80;64.40;;;;;;5108255;28;19967;-73
2023/09/14 02:29:51;;;;;;;;;;;20.90;64.40;;;;;;5108033;28;19920;-73
2023/09/14 02:32:17;;;;;;;;;;;20.90;64.40;;;;;;5108010;28;19920;-72
2023/09/14 02:34:42;;;;;;;;;;;20.90;64.40;;;;;;5107230;28;19924;-73
2023/09/14 02:37:08;;;;;;;;;;;20.80;64.30;;;;;;5106955;28;19924;-72
2023/09/14 02:39:34;;;;;;;;;;;20.90;64.40;;;;;;5107736;28;19924;-73
2023/09/14 02:41:59;;;;;;;;;;;20.80;64.30;;;;;;5107791;28;19948;-73
2023/09/14 02:44:25;;;;;;;;;;;20.80;64.30;;;;;;5109077;28;19945;-75
2023/09/14 02:46:50;;;;;;;;;;;20.80;64.40;;;;;;5107677;28;19920;-73
2023/09/14 02:49:16;;;;;;;;;;;20.90;64.30;;;;;;5098508;28;19920;-73
2023/09/14 02:51:41;;;;;;;;;;;20.80;64.30;;;;;;5094129;28;20266;-73
2023/09/14 02:54:07;;;;;;;;;;;20.80;64.30;;;;;;5094391;28;19924;-73
2023/09/14 02:56:32;;;;;;;;;;;20.80;64.30;;;;;;5095149;28;20531;-73
2023/09/14 02:58:57;;;;;;;;;;;20.80;64.30;;;;;;5094221;28;19927;-73
2023/09/14 03:01:23;;;;;;;;;;;20.80;64.30;;;;;;5095302;28;19937;-73
2023/09/14 03:03:48;;;;;;;;;;;20.80;64.30;;;;;;5095013;28;19942;-73
2023/09/14 03:06:14;;;;;;;;;;;20.80;64.30;;;;;;5093852;28;19920;-73
2023/09/14 03:08:39;;;;;;;;;;;20.80;64.20;;;;;;5093717;28;19920;-73
2023/09/14 03:11:05;;;;;;;;;;;20.80;64.20;;;;;;5093776;28;20002;-73
2023/09/14 03:13:31;;;;;;;;;;;20.70;64.20;;;;;;5093747;28;20287;-73
2023/09/14 03:15:57;;;;;;;;;;;20.80;64.20;;;;;;5092790;28;19924;-73
2023/09/14 03:18:23;;;;;;;;;;;20.80;64.20;;;;;;5092566;28;19924;-73
2023/09/14 03:20:51;;;;;;;;;;;20.90;64.00;;;;;;5093545;28;20333;-73
2023/09/14 03:23:16;;;;;;;;;;;21.10;63.50;;;;;;5094750;28;19920;-73
2023/09/14 03:25:42;;;;;;;;;;;21.40;62.70;;;;;;5093445;28;19928;-73
2023/09/14 03:28:08;;;;;;;;;;;21.70;61.90;;;;;;5094600;28;19923;-73
2023/09/14 03:30:35;;;;;;;;;;;21.90;61.10;;;;;;5093371;28;20266;-73
2023/09/14 03:33:00;;;;;;;;;;;22.00;60.50;;;;;;5093577;28;19919;-73
2023/09/14 03:35:26;;;;;;;;;;;22.20;60.10;;;;;;5093552;28;20256;-73
2023/09/14 03:37:51;;;;;;;;;;;22.20;59.80;;;;;;5092954;28;20367;-73
2023/09/14 03:40:17;;;;;;;;;;;22.20;59.60;;;;;;5094363;28;19973;-73
2023/09/14 03:42:42;;;;;;;;;;;22.20;59.40;;;;;;5093055;28;19924;-73
2023/09/14 03:45:08;;;;;;;;;;;22.20;59.40;;;;;;5093010;28;19920;-73
2023/09/14 03:47:33;;;;;;;;;;;22.10;59.40;;;;;;5092997;28;19931;-73
2023/09/14 03:49:59;;;;;;;;;;;22.10;59.50;;;;;;5093184;28;20023;-73
2023/09/14 03:52:25;;;;;;;;;;;22.00;59.70;;;;;;5094297;28;20390;-73
2023/09/14 03:54:50;;;;;;;;;;;21.90;59.70;;;;;;5092898;28;19971;-73
2023/09/14 03:57:16;;;;;;;;;;;21.90;59.90;;;;;;5092770;28;19950;-73
2023/09/14 03:59:42;;;;;;;;;;;21.80;60.00;;;;;;5092438;28;19974;-73
2023/09/14 04:02:08;;;;;;;;;;;21.70;60.20;;;;;;5092133;28;20463;-73
2023/09/14 04:04:33;;;;;;;;;;;21.60;60.30;;;;;;5092971;28;19924;-74
2023/09/14 04:06:59;;;;;;;;;;;21.60;60.50;;;;;;5093962;28;19920;-73
2023/09/14 04:09:29;;;;;;;;;;;21.50;60.60;;;;;;5092816;28;19920;-73
2023/09/14 04:11:55;;;;;;;;;;;21.40;60.80;;;;;;5092563;28;19920;-73
2023/09/14 04:14:20;;;;;;;;;;;21.30;61.10;;;;;;5092671;28;19948;-74
2023/09/14 04:16:47;;;;;;;;;;;21.30;61.30;;;;;;5092321;28;19986;-73
2023/09/14 04:19:13;;;;;;;;;;;21.20;61.40;;;;;;5092749;28;19924;-73
2023/09/14 04:21:40;;;;;;;;;;;21.10;61.60;;;;;;5092575;28;19981;-73
2023/09/14 04:24:06;;;;;;;;;;;21.10;61.90;;;;;;5092484;28;19951;-73
2023/09/14 04:26:31;;;;;;;;;;;21.00;62.00;;;;;;5092522;28;19920;-73
2023/09/14 04:28:57;;;;;;;;;;;20.90;62.20;;;;;;5092471;28;20395;-73
2023/09/14 04:31:23;;;;;;;;;;;20.80;62.30;;;;;;5092097;28;19920;-73
2023/09/14 04:33:48;;;;;;;;;;;20.80;62.40;;;;;;5092115;28;19920;-73
2023/09/14 04:36:13;;;;;;;;;;;20.80;62.60;;;;;;5092130;28;20001;-73
2023/09/14 04:38:39;;;;;;;;;;;20.80;62.70;;;;;;5091919;28;20454;-73
2023/09/14 04:41:05;;;;;;;;;;;20.80;62.70;;;;;;5093174;28;19920;-73
2023/09/14 04:43:32;;;;;;;;;;;20.70;62.60;;;;;;5092191;28;20014;-73
2023/09/14 04:45:58;;;;;;;;;;;20.80;62.70;;;;;;5093140;28;19966;-73
2023/09/14 04:48:24;;;;;;;;;;;20.80;62.60;;;;;;5093367;28;19926;-73
2023/09/14 04:50:50;;;;;;;;;;;20.90;62.30;;;;;;5091760;28;20023;-73
2023/09/14 04:53:16;;;;;;;;;;;21.00;61.90;;;;;;5093385;28;19920;-73
2023/09/14 04:55:43;;;;;;;;;;;21.20;61.60;;;;;;5091791;28;19934;-73
2023/09/14 04:58:09;;;;;;;;;;;21.20;61.10;;;;;;5092870;28;20405;-73
2023/09/14 05:00:35;;;;;;;;;;;21.40;60.90;;;;;;5092846;28;19920;-73
2023/09/14 05:03:04;;;;;;;;;;;21.50;60.50;;;;;;5091530;28;19931;-73
2023/09/14 05:05:32;;;;;;;;;;;21.50;60.20;;;;;;5091889;28;19955;-73
2023/09/14 05:07:58;;;;;;;;;;;21.60;60.00;;;;;;5091805;28;20012;-73
2023/09/14 05:10:23;;;;;;;;;;;21.70;59.80;;;;;;5091846;28;19989;-75
2023/09/14 05:12:49;;;;;;;;;;;21.70;59.60;;;;;;5091447;28;20363;-73
2023/09/14 05:15:14;;;;;;;;;;;21.70;59.50;;;;;;5091679;28;19920;-73
2023/09/14 05:17:40;;;;;;;;;;;21.70;59.40;;;;;;5091267;28;19924;-74
2023/09/14 05:20:07;;;;;;;;;;;21.70;59.40;;;;;;5092699;28;19920;-74
2023/09/14 05:22:33;;;;;;;;;;;21.70;59.40;;;;;;5091328;28;19939;-73
2023/09/14 05:24:58;;;;;;;;;;;21.60;59.40;;;;;;5091369;28;19921;-73
2023/09/14 05:27:25;;;;;;;;;;;21.60;59.40;;;;;;5090446;28;19927;-74
2023/09/14 05:29:50;;;;;;;;;;;21.60;59.60;;;;;;5090365;28;19928;-73
2023/09/14 05:32:16;;;;;;;;;;;21.50;59.60;;;;;;5088724;28;19930;-75
2023/09/14 05:34:42;;;;;;;;;;;21.40;59.70;;;;;;5089670;28;19924;-72
2023/09/14 05:37:07;;;;;;;;;;;21.40;59.90;;;;;;5089706;28;19924;-74
2023/09/14 05:39:33;;;;;;;;;;;21.30;59.80;;;;;;5089091;28;19969;-70
2023/09/14 05:41:58;;;;;;;;;;;21.20;59.60;;;;;;5089943;28;19920;-74
2023/09/14 05:44:24;;;;;;;;;;;21.10;59.30;;;;;;5089699;28;19920;-72
2023/09/14 05:46:49;;;;;;;;;;;21.00;59.00;;;;;;5090208;28;19928;-73
2023/09/14 05:49:15;;;;;;;;;;;20.90;58.70;;;;;;5088792;28;20355;-70
2023/09/14 05:51:40;;;;;;;;;;;20.80;58.40;;;;;;5086957;28;19920;-71
2023/09/14 05:54:06;;;;;;;;;;;20.80;58.20;;;;;;5085500;28;19960;-70
2023/09/14 05:56:32;;;;;;;;;;;20.80;58.00;;;;;;5083614;28;19927;-73
2023/09/14 05:58:57;;;;;;;;;;;20.80;57.80;;;;;;5089484;28;20129;-84
2023/09/14 06:01:23;;;;;;;;;;;20.80;57.70;;;;;;5089346;28;19931;-72
2023/09/14 06:03:48;;;;;;;;;;;20.80;57.50;;;;;;5088064;28;19920;-72
2023/09/14 06:06:14;;;;;;;;;;;20.80;57.10;;;;;;5086504;28;19924;-74
2023/09/14 06:08:40;;;;;;;;;;;20.80;56.80;;;;;;5091406;28;19979;-72
2023/09/14 06:11:06;;;;;;;;;;;20.90;56.50;;;;;;5088823;28;19924;-73
2023/09/14 06:13:31;;;;;;;;;;;20.90;56.10;;;;;;5088580;28;19924;-72
2023/09/14 06:15:57;;;;;;;;;;;21.00;55.50;;;;;;5095323;28;20334;-72
2023/09/14 06:18:22;;;;;;;;;;;21.20;54.90;;;;;;5084681;28;20333;-79
2023/09/14 06:20:48;;;;;;;;;;;21.30;54.50;;;;;;5089368;28;20319;-71
2023/09/14 06:23:13;;;;;;;;;;;21.40;54.00;;;;;;5069170;28;19919;-74
2023/09/14 06:25:39;;;;;;;;;;;21.60;53.80;;;;;;5086711;28;19928;-72
2023/09/14 06:28:04;;;;;;;;;;;21.80;53.50;;;;;;5085250;28;19920;-71
2023/09/14 06:30:30;;;;;;;;;;;21.80;53.20;;;;;;5075248;28;19936;-71
2023/09/14 06:32:55;;;;;;;;;;;21.90;53.10;;;;;;5068943;28;19928;-71
2023/09/14 06:35:21;;;;;;;;;;;21.90;53.00;;;;;;5104741;27;19938;-71
2023/09/14 06:37:46;;;;;;;;;;;21.90;53.00;;;;;;5076664;28;20419;-69
2023/09/14 06:40:12;;;;;;;;;;;21.80;53.10;;;;;;5078345;28;19936;-70
2023/09/14 06:42:37;;;;;;;;;;;21.80;53.30;;;;;;5075948;28;19934;-70
2023/09/14 06:45:03;;;;;;;;;;;21.70;53.60;;;;;;5074878;28;20049;-71
2023/09/14 06:47:29;;;;;;;;;;;21.70;53.90;;;;;;5077929;28;19921;-67
2023/09/14 06:49:54;;;;;;;;;;;21.60;54.00;;;;;;5079462;28;19989;-71
2023/09/14 06:52:20;;;;;;;;;;;21.60;54.20;;;;;;5075085;28;20174;-78
2023/09/14 06:54:46;;;;;;;;;;;21.50;54.50;;;;;;5080797;28;19931;-72
2023/09/14 06:57:11;;;;;;;;;;;21.50;54.90;;;;;;5080767;28;20026;-70
2023/09/14 06:59:37;;;;;;;;;;;21.40;55.20;;;;;;5065987;28;19924;-70
2023/09/14 07:02:02;;;;;;;;;;;21.40;55.50;;;;;;5072058;28;19947;-70
2023/09/14 07:04:28;;;;;;;;;;;21.40;55.70;;;;;;5073062;28;19932;-71
2023/09/14 07:06:54;;;;;;;;;;;21.40;55.90;;;;;;5103150;27;19924;-71
2023/09/14 07:09:19;;;;;;;;;;;21.40;56.10;;;;;;5072229;28;20424;-70
2023/09/14 07:11:45;;;;;;;;;;;21.30;56.20;;;;;;5070705;28;19947;-71
2023/09/14 07:14:10;;;;;;;;;;;21.30;56.30;;;;;;5075967;28;20025;-67
2023/09/14 07:16:36;;;;;;;;;;;21.30;56.50;;;;;;5076061;28;20700;-68
2023/09/14 07:19:02;;;;;;;;;;;21.30;56.70;;;;;;5066294;28;20414;-68
2023/09/14 07:21:32;;;;;;;;;;;21.30;56.80;;;;;;5071001;28;20358;-69
2023/09/14 07:23:59;;;;;;;;;;;21.30;56.90;;;;;;5049673;28;20022;-69
2023/09/14 07:26:25;;;;;;;;;;;21.30;57.00;;;;;;5072117;28;20406;-71
2023/09/14 07:28:51;;;;;;;;;;;21.20;57.10;;;;;;5095230;27;20010;-68
2023/09/14 07:31:17;;;;;;;;;;;21.20;57.10;;;;;;5072325;28;19935;-73
2023/09/14 07:33:44;;;;;;;;;;;21.10;57.20;;;;;;5071984;28;20294;-71
2023/09/14 07:36:10;;;;;;;;;;;21.10;57.50;;;;;;5071114;28;20671;-69
2023/09/14 07:38:37;;;;;;;;;;;21.10;57.70;;;;;;5065548;28;20015;-67
2023/09/14 07:41:03;;;;;;;;;;;21.10;57.90;;;;;;5065625;28;19935;-68
2023/09/14 07:43:28;;;;;;;;;;;21.10;58.10;;;;;;5066365;28;19924;-69
2023/09/14 07:45:55;;;;;;;;;;;21.10;58.30;;;;;;5070271;28;19921;-69
2023/09/14 07:48:21;;;;;;;;;;;21.00;58.30;;;;;;5070003;28;19924;-71
2023/09/14 07:50:47;;;;;;;;;;;21.00;58.40;;;;;;5075945;28;19928;-71
2023/09/14 07:53:13;;;;;;;;;;;21.00;58.60;;;;;;5072952;28;19981;-72
2023/09/14 07:55:38;;;;;;;;;;;21.00;58.70;;;;;;5073473;28;20341;-70
2023/09/14 07:58:06;;;;;;;;;;;21.00;58.70;;;;;;5071780;28;19954;-70
2023/09/14 08:00:34;;;;;;;;;;;21.00;58.70;;;;;;5065677;28;20023;-71
2023/09/14 08:03:00;;;;;;;;;;;21.00;58.80;;;;;;5100043;27;20011;-69
2023/09/14 08:05:26;;;;;;;;;;;21.00;59.00;;;;;;5070925;28;19924;-67
2023/09/14 08:07:52;;;;;;;;;;;21.00;59.10;;;;;;5069657;28;20394;-68
2023/09/14 08:10:18;;;;;;;;;;;21.00;59.20;;;;;;5070338;28;20286;-66
2023/09/14 08:12:44;;;;;;;;;;;21.10;59.30;;;;;;5071139;28;19924;-67
2023/09/14 08:15:10;;;;;;;;;;;21.10;59.40;;;;;;5071411;28;19920;-68
2023/09/14 08:17:36;;;;;;;;;;;21.10;59.40;;;;;;5071151;28;19924;-67
2023/09/14 08:20:02;;;;;;;;;;;21.10;59.50;;;;;;5069711;28;19930;-67
2023/09/14 08:22:28;;;;;;;;;;;21.10;59.60;;;;;;5072876;28;19924;-69
2023/09/14 08:24:54;;;;;;;;;;;21.00;59.50;;;;;;5071749;28;19931;-68
2023/09/14 08:27:19;;;;;;;;;;;21.00;59.40;;;;;;5074465;28;19924;-67
2023/09/14 08:29:45;;;;;;;;;;;21.10;59.50;;;;;;5076376;28;19928;-70
2023/09/14 08:32:11;;;;;;;;;;;21.00;59.50;;;;;;5070299;28;19924;-67
2023/09/14 08:34:37;;;;;;;;;;;21.00;59.40;;;;;;5075670;28;20299;-69
2023/09/14 08:37:03;;;;;;;;;;;21.00;59.40;;;;;;5077355;28;19924;-68
2023/09/14 08:39:28;;;;;;;;;;;21.00;59.50;;;;;;5070272;28;20166;-68
2023/09/14 08:41:54;;;;;;;;;;;21.00;59.50;;;;;;5071547;28;19970;-68
2023/09/14 08:44:20;;;;;;;;;;;21.00;59.60;;;;;;5071473;28;19923;-68
2023/09/14 08:46:47;;;;;;;;;;;21.00;59.70;;;;;;5068427;28;19925;-69
2023/09/14 08:49:15;;;;;;;;;;;20.90;59.80;;;;;;5065752;28;19927;-69
2023/09/14 08:51:42;;;;;;;;;;;20.90;59.80;;;;;;5073540;28;19977;-68
2023/09/14 08:54:07;;;;;;;;;;;20.90;59.80;;;;;;5067108;28;19924;-70
2023/09/14 08:56:33;;;;;;;;;;;20.90;59.80;;;;;;5078070;28;19954;-70
2023/09/14 08:59:00;;;;;;;;;;;20.90;59.90;;;;;;5071544;28;19924;-69
2023/09/14 09:01:26;;;;;;;;;;;21.00;60.00;;;;;;5066751;28;19923;-70
2023/09/14 09:03:51;;;;;;;;;;;21.00;60.00;;;;;;5068587;28;20420;-71
2023/09/14 09:06:17;;;;;;;;;;;21.00;59.90;;;;;;5071071;28;19990;-69
2023/09/14 09:08:43;;;;;;;;;;;21.00;59.80;;;;;;5070182;28;19935;-70
2023/09/14 09:11:09;;;;;;;;;;;21.00;59.80;;;;;;5067913;28;19939;-71
2023/09/14 09:13:35;;;;;;;;;;;21.10;59.80;;;;;;5073016;28;19930;-70
2023/09/14 09:16:01;;;;;;;;;;;21.10;59.80;;;;;;5069601;28;19935;-69
2023/09/14 09:18:27;;;;;;;;;;;21.10;60.50;;;;;;5069157;28;19931;-69
2023/09/14 09:20:52;;;;;;;;;;;21.10;59.80;;;;;;5100794;27;19928;-70
2023/09/14 09:23:20;;;;;;;;;;;21.20;59.80;;;;;;5073303;28;19920;-71
2023/09/14 09:25:46;;;;;;;;;;;21.20;59.90;;;;;;5068561;28;19935;-69
2023/09/14 09:28:11;;;;;;;;;;;21.20;59.90;;;;;;5068289;28;19934;-69
2023/09/14 09:30:37;;;;;;;;;;;21.20;60.00;;;;;;5069258;28;19920;-71
2023/09/14 09:33:03;;;;;;;;;;;21.20;60.00;;;;;;5075468;28;19928;-70
2023/09/14 09:35:29;;;;;;;;;;;21.20;60.00;;;;;;5066531;28;19928;-75
2023/09/14 09:37:55;;;;;;;;;;;21.20;60.00;;;;;;5074953;28;19974;-72
2023/09/14 09:40:22;;;;;;;;;;;21.20;60.10;;;;;;5077621;28;19924;-69
2023/09/14 09:42:48;;;;;;;;;;;21.20;60.10;;;;;;5071116;28;20417;-77
2023/09/14 09:45:14;;;;;;;;;;;21.20;60.10;;;;;;5075454;28;19935;-72
2023/09/14 09:47:40;;;;;;;;;;;21.20;60.10;;;;;;5079678;28;19924;-70
2023/09/14 09:50:06;;;;;;;;;;;21.30;59.90;;;;;;5075193;28;20552;-73
2023/09/14 09:52:33;;;;;;;;;;;21.30;59.70;;;;;;5069668;28;19924;-71
2023/09/14 09:54:58;;;;;;;;;;;21.30;59.70;;;;;;5071464;28;20600;-71
2023/09/14 09:57:28;;;;;;;;;;;21.30;59.50;;;;;;5075099;28;19928;-73
2023/09/14 09:59:55;;;;;;;;;;;21.30;59.30;;;;;;5103062;27;20487;-73
2023/09/14 10:02:29;;;;;;;;;;;21.30;59.30;;;;;;5073280;28;19965;-71
2023/09/14 10:04:55;;;;;;;;;;;21.30;59.40;;;;;;5073929;28;19943;-71
2023/09/14 10:07:21;;;;;;;;;;;21.40;59.20;;;;;;5081614;28;20367;-72
2023/09/14 10:09:49;;;;;;;;;;;21.40;59.20;;;;;;5070822;28;19925;-71
2023/09/14 10:12:15;;;;;;;;;;;21.40;59.20;;;;;;5074516;28;19924;-72
2023/09/14 10:14:42;;;;;;;;;;;21.40;59.30;;;;;;5079311;28;20295;-72
2023/09/14 10:17:10;;;;;;;;;;;21.50;59.30;;;;;;5081298;28;20282;-72
2023/09/14 10:19:37;;;;;;;;;;;21.50;59.30;;;;;;5075670;28;19986;-71
2023/09/14 10:22:03;;;;;;;;;;;21.50;59.10;;;;;;5063753;28;19932;-72
2023/09/14 10:24:28;;;;;;;;;;;21.60;58.90;;;;;;5066340;28;19924;-71
2023/09/14 10:26:55;;;;;;;;;;;21.60;58.70;;;;;;5068200;28;19920;-73
2023/09/14 10:29:21;;;;;;;;;;;21.60;58.50;;;;;;5076070;28;19958;-72
2023/09/14 10:31:48;;;;;;;;;;;21.70;58.20;;;;;;5082816;28;19924;-72
2023/09/14 10:34:14;;;;;;;;;;;21.70;58.10;;;;;;5101602;27;19935;-72
2023/09/14 10:36:40;;;;;;;;;;;21.70;58.00;;;;;;5054602;28;19928;-72
2023/09/14 10:39:06;;;;;;;;;;;21.70;57.80;;;;;;5099889;27;19924;-72
2023/09/14 10:41:32;;;;;;;;;;;21.70;57.40;;;;;;5070038;28;19930;-72
2023/09/14 10:43:58;;;;;;;;;;;21.70;57.40;;;;;;5101921;27;20295;-72
2023/09/14 10:46:26;;;;;;;;;;;21.80;57.30;;;;;;5070705;28;19928;-73
2023/09/14 10:48:54;;;;;;;;;;;21.70;57.40;;;;;;5070425;28;19959;-70
2023/09/14 10:51:20;;;;;;;;;;;21.70;57.30;;;;;;5076572;28;19930;-71
2023/09/14 10:53:46;;;;;;;;;;;21.80;57.50;;;;;;5069039;28;19925;-69
2023/09/14 10:56:20;;;;;;;;;;;21.80;57.70;;;;;;5067472;28;19931;-70
2023/09/14 10:58:48;;;;;;;;;;;21.80;57.80;;;;;;5100953;27;19923;-70
2023/09/14 11:01:14;;;;;;;;;;;21.80;57.80;;;;;;5071258;28;20359;-71
2023/09/14 11:03:59;;;;;;;;;;;21.80;58.00;;;;;;5068885;28;19931;-71
2023/09/14 11:06:41;;;;;;;;;;;21.90;58.40;;;;;;5069258;28;20000;-70
2023/09/14 11:09:07;;;;;;;;;;;21.80;58.30;;;;;;5097615;27;19953;-77
2023/09/14 11:11:41;;;;;;;;;;;21.90;58.30;;;;;;5061911;28;20390;-75
2023/09/14 11:14:08;;;;;;;;;;;21.90;58.30;;;;;;5066527;28;20013;-71
2023/09/14 11:16:41;;;;;;;;;;;21.90;58.20;;;;;;5071630;28;19924;-71
2023/09/14 11:19:07;;;;;;;;;;;21.90;58.20;;;;;;5059157;28;20417;-72
2023/09/14 11:24:12;;;;;;;;;;;21.90;57.90;;;;;;5086157;27;19920;-69
2023/09/14 11:26:46;;;;;;;;;;;21.80;57.80;;;;;;5068920;28;20388;-69
2023/09/14 11:29:12;;;;;;;;;;;21.80;57.90;;;;;;5065017;28;19928;-71
2023/09/14 11:31:39;;;;;;;;;;;21.70;58.00;;;;;;5070288;28;19932;-69
2023/09/14 11:34:06;;;;;;;;;;;21.70;58.10;;;;;;5066897;28;19929;-71
2023/09/14 11:36:33;;;;;;;;;;;21.70;58.20;;;;;;5067852;28;20005;-78
2023/09/14 11:39:00;;;;;;;;;;;21.60;58.30;;;;;;5073008;28;19927;-72
2023/09/14 11:44:21;;;;;;;;;;;21.60;58.30;;;;;;5066913;27;19946;-70
2023/09/14 11:46:48;;;;;;;;;;;21.60;58.40;;;;;;5069544;28;20325;-70
2023/09/14 11:49:16;;;;;;;;;;;21.50;58.40;;;;;;5074104;28;20861;-70
2023/09/14 11:51:41;;;;;;;;;;;21.50;58.50;;;;;;5067458;28;19924;-71
2023/09/14 11:54:07;;;;;;;;;;;21.50;58.60;;;;;;5105971;28;20445;-74
2023/09/14 11:56:33;;;;;;;;;;;21.50;58.60;;;;;;5073257;28;19921;-72
2023/09/14 11:59:00;;;;;;;;;;;21.50;58.60;;;;;;5070737;28;19924;-72
2023/09/14 12:01:28;;;;;;;;;;;21.40;58.60;;;;;;5068831;28;20394;-71
2023/09/14 12:03:53;;;;;;;;;;;21.50;58.70;;;;;;5066488;28;20064;-69
2023/09/14 12:06:19;;;;;;;;;;;21.50;58.70;;;;;;5068788;28;19946;-69
2023/09/14 12:08:46;;;;;;;;;;;21.40;58.80;;;;;;5096445;28;19924;-69
2023/09/14 12:11:13;;;;;;;;;;;21.50;58.90;;;;;;5100671;28;20404;-71
2023/09/14 12:13:48;;;;;;;;;;;21.40;58.90;;;;;;5068762;28;19967;-73
2023/09/14 12:16:18;;;;;;;;;;;21.40;59.00;;;;;;5071381;28;20000;-71
2023/09/14 12:18:43;;;;;;;;;;;21.40;59.00;;;;;;5070583;28;20387;-70
2023/09/14 12:21:09;;;;;;;;;;;21.40;59.10;;;;;;5095116;28;19925;-69
2023/09/14 12:23:38;;;;;;;;;;;21.40;59.10;;;;;;5089688;28;19978;-71
2023/09/14 12:26:04;;;;;;;;;;;21.40;59.10;;;;;;5096096;28;19924;-74
2023/09/14 12:28:29;;;;;;;;;;;21.40;59.10;;;;;;5094218;28;19924;-75
2023/09/14 12:30:55;;;;;;;;;;;21.40;59.10;;;;;;5063489;28;19928;-74
2023/09/14 12:33:21;;;;;;;;;;;21.40;59.10;;;;;;5064456;28;19924;-75
2023/09/14 12:35:47;;;;;;;;;;;21.40;59.20;;;;;;5067255;28;20383;-73
2023/09/14 12:38:13;;;;;;;;;;;21.40;59.20;;;;;;5096712;28;19924;-73
2023/09/14 12:40:38;;;;;;;;;;;21.40;59.20;;;;;;5074828;28;21235;-73
2023/09/14 12:43:04;;;;;;;;;;;21.40;59.30;;;;;;5101143;28;20436;-72
2023/09/14 12:45:35;;;;;;;;;;;21.40;59.30;;;;;;5070970;28;20392;-72
2023/09/14 12:48:02;;;;;;;;;;;21.40;59.30;;;;;;5067228;28;19925;-76
2023/09/14 12:50:29;;;;;;;;;;;21.40;59.30;;;;;;5098652;28;19977;-72
2023/09/14 12:52:57;;;;;;;;;;;21.40;59.40;;;;;;5068571;28;20302;-78
2023/09/14 12:55:23;;;;;;;;;;;21.40;59.40;;;;;;5087752;28;19958;-76
2023/09/14 12:57:50;;;;;;;;;;;21.40;59.40;;;;;;5050804;28;19924;-74
2023/09/14 13:00:16;;;;;;;;;;;21.40;59.40;;;;;;5053152;28;19967;-75
2023/09/14 13:02:42;;;;;;;;;;;21.40;59.40;;;;;;5054481;28;20020;-78
2023/09/14 13:05:08;;;;;;;;;;;21.40;59.50;;;;;;5057526;28;19948;-77
2023/09/14 13:07:35;;;;;;;;;;;21.40;59.50;;;;;;5059026;28;20287;-76
2023/09/14 13:10:06;;;;;;;;;;;21.40;59.50;;;;;;5084300;28;20287;-75
2023/09/14 13:12:31;;;;;;;;;;;21.40;59.60;;;;;;5067064;28;19968;-76
2023/09/14 13:14:57;;;;;;;;;;;21.40;59.60;;;;;;5069630;28;19979;-76
2023/09/14 13:17:25;;;;;;;;;;;21.40;59.60;;;;;;5066370;28;19920;-76
2023/09/14 13:19:51;;;;;;;;;;;21.40;59.60;;;;;;5059815;28;19956;-77
2023/09/14 13:22:16;;;;;;;;;;;21.40;59.70;;;;;;5060853;28;20952;-75
2023/09/14 13:24:42;;;;;;;;;;;21.40;60.30;;;;;;5060957;28;19929;-76
2023/09/14 13:27:07;;;;;;;;;;;21.40;59.60;;;;;;5060451;28;20054;-77
2023/09/14 13:29:33;;;;;;;;;;;21.40;59.60;;;;;;5064955;28;19951;-76
2023/09/14 13:31:58;;;;;;;;;;;21.40;59.70;;;;;;5065249;28;20291;-76
2023/09/14 13:34:25;;;;;;;;;;;21.40;59.60;;;;;;5067674;28;19932;-76
2023/09/14 13:36:52;;;;;;;;;;;21.40;59.70;;;;;;5088271;28;20013;-76
2023/09/14 13:39:18;;;;;;;;;;;21.40;59.70;;;;;;5068373;28;19974;-76
2023/09/14 13:41:44;;;;;;;;;;;21.40;59.70;;;;;;5095495;28;19964;-76
2023/09/14 13:44:10;;;;;;;;;;;21.40;59.70;;;;;;5063851;28;20583;-76
2023/09/14 13:46:35;;;;;;;;;;;21.40;59.70;;;;;;5068124;28;19927;-76
2023/09/14 13:49:01;;;;;;;;;;;21.40;59.70;;;;;;5092450;28;19924;-75
2023/09/14 13:51:26;;;;;;;;;;;21.40;59.80;;;;;;5073254;28;19966;-77
2023/09/14 13:53:52;;;;;;;;;;;21.40;59.80;;;;;;5071557;28;19931;-78
2023/09/14 13:56:17;;;;;;;;;;;21.40;59.80;;;;;;5064904;28;20062;-76
2023/09/14 13:58:43;;;;;;;;;;;21.40;59.90;;;;;;5067147;28;20383;-76
2023/09/14 14:01:08;;;;;;;;;;;21.40;59.80;;;;;;5079738;28;19934;-76
2023/09/14 14:03:34;;;;;;;;;;;21.40;59.80;;;;;;5059539;28;19930;-76
2023/09/14 14:05:59;;;;;;;;;;;21.40;59.90;;;;;;5059974;28;19924;-76
2023/09/14 14:08:26;;;;;;;;;;;21.40;59.80;;;;;;5058640;28;19977;-77
2023/09/14 14:10:51;;;;;;;;;;;21.40;59.90;;;;;;5058567;28;19924;-74
2023/09/14 14:13:17;;;;;;;;;;;21.40;59.90;;;;;;5059613;28;19936;-76
2023/09/14 14:15:42;;;;;;;;;;;21.50;60.00;;;;;;5063231;28;19920;-77
2023/09/14 14:18:08;;;;;;;;;;;21.50;60.00;;;;;;5057316;28;19985;-77
2023/09/14 14:20:35;;;;;;;;;;;21.40;59.90;;;;;;5057458;28;19927;-76